sensor_id;sensor_type;location;lat;lon;timestamp;temperature;humidity
39095;DHT22;24840;47.508;19.376;2023-03-20T00:01:46;5.40;99.90
39095;DHT22;24840;47.508;19.376;2023-03-20T00:04:12;5.40;99.90
39095;DHT22;24840;47.508;19.376;2023-03-20T00:06:37;5.30;99.90
39095;DHT22;24840;47.508;19.376;2023-03-20T00:09:03;5.20;99.90
39095;DHT22;24840;47.508;19.376;2023-03-20T00:14:12;5.20;99.90
39095;DHT22;24840;47.508;19.376;2023-03-20T00:16:41;5.30;99.90
39095;DHT22;24840;47.508;19.376;2023-03-20T00:21:39;5.30;99.90
39095;DHT22;24840;47.508;19.376;2023-03-20T00:24:06;5.30;99.90
39095;DHT22;24840;47.508;19.376;2023-03-20T00:26:33;5.30;99.90
39095;DHT22;24840;47.508;19.376;2023-03-20T00:29:00;5.30;99.90
39095;DHT22;24840;47.508;19.376;2023-03-20T00:31:36;5.20;99.90
39095;DHT22;24840;47.508;19.376;2023-03-20T00:34:05;5.20;99.90
39095;DHT22;24840;47.508;19.376;2023-03-20T00:36:32;5.20;99.90
39095;DHT22;24840;47.508;19.376;2023-03-20T00:38:58;5.20;99.90
39095;DHT22;24840;47.508;19.376;2023-03-20T00:46:38;5.10;99.90
39095;DHT22;24840;47.508;19.376;2023-03-20T00:49:04;5.00;99.90
39095;DHT22;24840;47.508;19.376;2023-03-20T00:51:30;5.10;99.90
39095;DHT22;24840;47.508;19.376;2023-03-20T00:53:56;5.10;99.90
39095;DHT22;24840;47.508;19.376;2023-03-20T00:56:37;5.00;99.90
39095;DHT22;24840;47.508;19.376;2023-03-20T00:59:05;5.00;99.90
39095;DHT22;24840;47.508;19.376;2023-03-20T01:01:32;5.00;99.90
39095;DHT22;24840;47.508;19.376;2023-03-20T01:04:00;5.00;99.90
39095;DHT22;24840;47.508;19.376;2023-03-20T01:06:26;5.10;99.90
39095;DHT22;24840;47.508;19.376;2023-03-20T01:08:53;4.90;99.90
39095;DHT22;24840;47.508;19.376;2023-03-20T01:11:23;4.90;99.90
39095;DHT22;24840;47.508;19.376;2023-03-20T01:13:49;4.90;99.90
39095;DHT22;24840;47.508;19.376;2023-03-20T01:16:21;4.90;99.90
39095;DHT22;24840;47.508;19.376;2023-03-20T01:18:48;5.00;99.90
39095;DHT22;24840;47.508;19.376;2023-03-20T01:21:14;4.90;99.90
39095;DHT22;24840;47.508;19.376;2023-03-20T01:23:40;4.90;99.90
39095;DHT22;24840;47.508;19.376;2023-03-20T01:26:29;4.90;99.90
39095;DHT22;24840;47.508;19.376;2023-03-20T01:28:56;4.90;99.90
39095;DHT22;24840;47.508;19.376;2023-03-20T01:31:22;4.90;99.90
39095;DHT22;24840;47.508;19.376;2023-03-20T01:33:47;4.80;99.90
39095;DHT22;24840;47.508;19.376;2023-03-20T01:36:15;4.80;99.90
39095;DHT22;24840;47.508;19.376;2023-03-20T01:38:42;4.80;99.90
39095;DHT22;24840;47.508;19.376;2023-03-20T01:41:16;5.00;99.90
39095;DHT22;24840;47.508;19.376;2023-03-20T01:43:43;5.00;99.90
39095;DHT22;24840;47.508;19.376;2023-03-20T01:51:24;4.90;99.90
39095;DHT22;24840;47.508;19.376;2023-03-20T01:59:35;4.90;99.90
39095;DHT22;24840;47.508;19.376;2023-03-20T02:02:04;4.80;99.90
39095;DHT22;24840;47.508;19.376;2023-03-20T02:04:35;4.90;99.90
39095;DHT22;24840;47.508;19.376;2023-03-20T02:07:02;5.00;99.90
39095;DHT22;24840;47.508;19.376;2023-03-20T02:09:29;5.00;99.90
39095;DHT22;24840;47.508;19.376;2023-03-20T02:11:56;4.90;99.90
39095;DHT22;24840;47.508;19.376;2023-03-20T02:14:22;5.00;99.90
39095;DHT22;24840;47.508;19.376;2023-03-20T02:16:48;5.00;99.90
39095;DHT22;24840;47.508;19.376;2023-03-20T02:19:26;5.00;99.90
39095;DHT22;24840;47.508;19.376;2023-03-20T02:41:59;5.10;99.90
39095;DHT22;24840;47.508;19.376;2023-03-20T02:47:34;5.20;99.90
39095;DHT22;24840;47.508;19.376;2023-03-20T02:59:04;5.20;99.90
39095;DHT22;24840;47.508;19.376;2023-03-20T03:01:40;5.30;99.90
39095;DHT22;24840;47.508;19.376;2023-03-20T03:04:15;5.20;99.90
39095;DHT22;24840;47.508;19.376;2023-03-20T03:06:44;5.30;99.90
39095;DHT22;24840;47.508;19.376;2023-03-20T03:11:42;5.30;99.90
39095;DHT22;24840;47.508;19.376;2023-03-20T03:14:34;5.20;99.90
39095;DHT22;24840;47.508;19.376;2023-03-20T03:17:03;5.20;99.90
39095;DHT22;24840;47.508;19.376;2023-03-20T03:19:31;5.20;99.90
39095;DHT22;24840;47.508;19.376;2023-03-20T03:21:58;5.20;99.90
39095;DHT22;24840;47.508;19.376;2023-03-20T03:27:02;5.20;99.90
39095;DHT22;24840;47.508;19.376;2023-03-20T03:29:36;5.30;99.90
39095;DHT22;24840;47.508;19.376;2023-03-20T03:32:06;5.30;99.90
39095;DHT22;24840;47.508;19.376;2023-03-20T03:34:33;5.20;99.90
39095;DHT22;24840;47.508;19.376;2023-03-20T03:37:12;5.10;99.90
39095;DHT22;24840;47.508;19.376;2023-03-20T03:40:06;5.30;99.90
39095;DHT22;24840;47.508;19.376;2023-03-20T03:42:43;5.30;99.90
39095;DHT22;24840;47.508;19.376;2023-03-20T03:45:15;5.20;99.90
39095;DHT22;24840;47.508;19.376;2023-03-20T03:48:32;5.10;99.90
39095;DHT22;24840;47.508;19.376;2023-03-20T03:50:53;5.20;99.90
39095;DHT22;24840;47.508;19.376;2023-03-20T03:53:29;5.20;99.90
39095;DHT22;24840;47.508;19.376;2023-03-20T03:56:01;5.20;99.90
39095;DHT22;24840;47.508;19.376;2023-03-20T03:58:28;5.10;99.90
39095;DHT22;24840;47.508;19.376;2023-03-20T04:00:57;5.00;99.90
39095;DHT22;24840;47.508;19.376;2023-03-20T04:03:29;4.90;99.90
39095;DHT22;24840;47.508;19.376;2023-03-20T04:05:58;4.90;99.90
39095;DHT22;24840;47.508;19.376;2023-03-20T04:08:24;4.80;99.90
39095;DHT22;24840;47.508;19.376;2023-03-20T04:10:50;4.60;99.90
39095;DHT22;24840;47.508;19.376;2023-03-20T04:13:16;4.60;99.90
39095;DHT22;24840;47.508;19.376;2023-03-20T04:15:42;4.60;99.90
39095;DHT22;24840;47.508;19.376;2023-03-20T04:18:14;4.60;99.90
39095;DHT22;24840;47.508;19.376;2023-03-20T04:20:42;4.40;99.90
39095;DHT22;24840;47.508;19.376;2023-03-20T04:23:07;4.40;99.90
39095;DHT22;24840;47.508;19.376;2023-03-20T04:25:33;4.40;99.90
39095;DHT22;24840;47.508;19.376;2023-03-20T04:27:59;4.40;99.90
39095;DHT22;24840;47.508;19.376;2023-03-20T04:30:25;4.20;99.90
39095;DHT22;24840;47.508;19.376;2023-03-20T04:32:51;4.10;99.90
39095;DHT22;24840;47.508;19.376;2023-03-20T04:35:17;4.00;99.90
39095;DHT22;24840;47.508;19.376;2023-03-20T04:37:43;4.10;99.90
39095;DHT22;24840;47.508;19.376;2023-03-20T04:40:09;4.10;99.90
39095;DHT22;24840;47.508;19.376;2023-03-20T04:42:35;4.00;99.90
39095;DHT22;24840;47.508;19.376;2023-03-20T04:45:00;4.10;99.90
39095;DHT22;24840;47.508;19.376;2023-03-20T04:47:26;4.00;99.90
39095;DHT22;24840;47.508;19.376;2023-03-20T04:49:52;4.00;99.90
39095;DHT22;24840;47.508;19.376;2023-03-20T04:52:17;3.80;99.90
39095;DHT22;24840;47.508;19.376;2023-03-20T04:54:46;3.70;99.90
39095;DHT22;24840;47.508;19.376;2023-03-20T04:57:11;3.90;99.90
39095;DHT22;24840;47.508;19.376;2023-03-20T04:59:37;3.90;99.90
39095;DHT22;24840;47.508;19.376;2023-03-20T05:02:03;3.70;99.90
39095;DHT22;24840;47.508;19.376;2023-03-20T05:04:29;3.70;99.90
39095;DHT22;24840;47.508;19.376;2023-03-20T05:06:54;3.70;99.90
39095;DHT22;24840;47.508;19.376;2023-03-20T05:09:21;3.80;99.90
39095;DHT22;24840;47.508;19.376;2023-03-20T05:11:47;3.80;99.90
39095;DHT22;24840;47.508;19.376;2023-03-20T05:14:12;3.70;99.90
39095;DHT22;24840;47.508;19.376;2023-03-20T05:16:38;3.70;99.90
39095;DHT22;24840;47.508;19.376;2023-03-20T05:19:04;3.60;99.90
39095;DHT22;24840;47.508;19.376;2023-03-20T05:21:30;3.60;99.90
39095;DHT22;24840;47.508;19.376;2023-03-20T05:23:56;3.80;99.90
39095;DHT22;24840;47.508;19.376;2023-03-20T05:26:22;3.80;99.90
39095;DHT22;24840;47.508;19.376;2023-03-20T05:28:47;3.70;99.90
39095;DHT22;24840;47.508;19.376;2023-03-20T05:31:13;3.70;99.90
39095;DHT22;24840;47.508;19.376;2023-03-20T05:33:39;3.80;99.90
39095;DHT22;24840;47.508;19.376;2023-03-20T05:36:05;3.80;99.90
39095;DHT22;24840;47.508;19.376;2023-03-20T05:38:32;3.80;99.90
39095;DHT22;24840;47.508;19.376;2023-03-20T05:40:58;3.90;99.90
39095;DHT22;24840;47.508;19.376;2023-03-20T05:43:24;4.00;99.90
39095;DHT22;24840;47.508;19.376;2023-03-20T05:45:52;4.00;99.90
39095;DHT22;24840;47.508;19.376;2023-03-20T05:48:17;4.00;99.90
39095;DHT22;24840;47.508;19.376;2023-03-20T05:50:43;4.00;99.90
39095;DHT22;24840;47.508;19.376;2023-03-20T05:53:09;4.10;99.90
39095;DHT22;24840;47.508;19.376;2023-03-20T05:55:35;4.10;99.90
39095;DHT22;24840;47.508;19.376;2023-03-20T05:58:01;4.20;99.90
39095;DHT22;24840;47.508;19.376;2023-03-20T06:00:26;4.30;99.90
39095;DHT22;24840;47.508;19.376;2023-03-20T06:02:52;4.30;99.90
39095;DHT22;24840;47.508;19.376;2023-03-20T06:05:18;4.40;99.90
39095;DHT22;24840;47.508;19.376;2023-03-20T06:07:44;4.40;99.90
39095;DHT22;24840;47.508;19.376;2023-03-20T06:10:10;4.50;99.90
39095;DHT22;24840;47.508;19.376;2023-03-20T06:12:35;4.60;99.90
39095;DHT22;24840;47.508;19.376;2023-03-20T06:15:01;4.70;99.90
39095;DHT22;24840;47.508;19.376;2023-03-20T06:17:27;4.80;99.90
39095;DHT22;24840;47.508;19.376;2023-03-20T06:19:53;4.90;99.90
39095;DHT22;24840;47.508;19.376;2023-03-20T06:22:19;5.00;99.90
39095;DHT22;24840;47.508;19.376;2023-03-20T06:24:45;5.00;99.90
39095;DHT22;24840;47.508;19.376;2023-03-20T06:27:11;5.10;99.90
39095;DHT22;24840;47.508;19.376;2023-03-20T06:29:37;5.30;99.90
39095;DHT22;24840;47.508;19.376;2023-03-20T06:32:06;5.60;99.90
39095;DHT22;24840;47.508;19.376;2023-03-20T06:34:33;5.70;99.90
39095;DHT22;24840;47.508;19.376;2023-03-20T06:36:58;5.80;99.90
39095;DHT22;24840;47.508;19.376;2023-03-20T06:39:24;6.00;99.90
39095;DHT22;24840;47.508;19.376;2023-03-20T06:41:51;6.20;99.90
39095;DHT22;24840;47.508;19.376;2023-03-20T06:44:17;6.40;99.90
39095;DHT22;24840;47.508;19.376;2023-03-20T06:46:42;6.40;99.90
39095;DHT22;24840;47.508;19.376;2023-03-20T06:49:08;6.50;99.90
39095;DHT22;24840;47.508;19.376;2023-03-20T06:51:34;6.80;99.90
39095;DHT22;24840;47.508;19.376;2023-03-20T06:54:00;7.00;99.90
39095;DHT22;24840;47.508;19.376;2023-03-20T06:56:25;7.40;99.90
39095;DHT22;24840;47.508;19.376;2023-03-20T06:58:51;7.70;99.90
39095;DHT22;24840;47.508;19.376;2023-03-20T07:01:17;8.10;99.90
39095;DHT22;24840;47.508;19.376;2023-03-20T07:03:45;8.40;99.90
39095;DHT22;24840;47.508;19.376;2023-03-20T07:06:11;8.60;99.90
39095;DHT22;24840;47.508;19.376;2023-03-20T07:08:37;8.80;99.90
39095;DHT22;24840;47.508;19.376;2023-03-20T07:11:04;9.10;99.90
39095;DHT22;24840;47.508;19.376;2023-03-20T07:13:30;9.70;99.90
39095;DHT22;24840;47.508;19.376;2023-03-20T07:15:57;10.10;99.80
39095;DHT22;24840;47.508;19.376;2023-03-20T07:18:24;10.40;97.80
39095;DHT22;24840;47.508;19.376;2023-03-20T07:20:51;10.60;95.80
39095;DHT22;24840;47.508;19.376;2023-03-20T07:23:18;10.70;92.80
39095;DHT22;24840;47.508;19.376;2023-03-20T07:25:43;10.80;93.90
39095;DHT22;24840;47.508;19.376;2023-03-20T07:28:10;11.10;93.30
39095;DHT22;24840;47.508;19.376;2023-03-20T07:30:36;11.20;92.20
39095;DHT22;24840;47.508;19.376;2023-03-20T07:33:02;11.70;92.50
39095;DHT22;24840;47.508;19.376;2023-03-20T07:35:28;11.90;90.10
39095;DHT22;24840;47.508;19.376;2023-03-20T07:37:53;12.00;88.20
39095;DHT22;24840;47.508;19.376;2023-03-20T07:40:19;12.10;87.10
39095;DHT22;24840;47.508;19.376;2023-03-20T07:42:45;12.80;89.10
39095;DHT22;24840;47.508;19.376;2023-03-20T07:45:12;12.80;81.60
39095;DHT22;24840;47.508;19.376;2023-03-20T07:47:38;13.00;83.10
39095;DHT22;24840;47.508;19.376;2023-03-20T07:50:05;13.10;80.50
39095;DHT22;24840;47.508;19.376;2023-03-20T07:52:30;13.10;80.40
39095;DHT22;24840;47.508;19.376;2023-03-20T07:54:56;13.20;79.80
39095;DHT22;24840;47.508;19.376;2023-03-20T07:57:22;13.50;78.70
39095;DHT22;24840;47.508;19.376;2023-03-20T07:59:48;13.80;80.20
39095;DHT22;24840;47.508;19.376;2023-03-20T08:02:15;14.20;76.70
39095;DHT22;24840;47.508;19.376;2023-03-20T08:04:41;14.40;79.60
39095;DHT22;24840;47.508;19.376;2023-03-20T08:07:07;14.20;71.50
39095;DHT22;24840;47.508;19.376;2023-03-20T08:09:33;14.10;73.70
39095;DHT22;24840;47.508;19.376;2023-03-20T08:11:59;14.40;75.90
39095;DHT22;24840;47.508;19.376;2023-03-20T08:14:25;14.60;76.10
39095;DHT22;24840;47.508;19.376;2023-03-20T08:16:51;14.50;72.50
39095;DHT22;24840;47.508;19.376;2023-03-20T08:19:16;14.70;76.10
39095;DHT22;24840;47.508;19.376;2023-03-20T08:21:42;14.80;73.60
39095;DHT22;24840;47.508;19.376;2023-03-20T08:24:08;14.80;70.50
39095;DHT22;24840;47.508;19.376;2023-03-20T08:26:34;14.80;76.00
39095;DHT22;24840;47.508;19.376;2023-03-20T08:29:00;14.90;73.20
39095;DHT22;24840;47.508;19.376;2023-03-20T08:31:25;15.60;73.80
39095;DHT22;24840;47.508;19.376;2023-03-20T08:33:51;16.10;73.20
39095;DHT22;24840;47.508;19.376;2023-03-20T08:36:17;16.60;69.90
39095;DHT22;24840;47.508;19.376;2023-03-20T08:38:47;16.70;70.00
39095;DHT22;24840;47.508;19.376;2023-03-20T08:41:13;16.80;67.10
39095;DHT22;24840;47.508;19.376;2023-03-20T08:43:39;16.70;67.60
39095;DHT22;24840;47.508;19.376;2023-03-20T08:46:05;16.70;68.50
39095;DHT22;24840;47.508;19.376;2023-03-20T08:48:31;17.10;68.70
39095;DHT22;24840;47.508;19.376;2023-03-20T08:50:57;17.70;69.00
39095;DHT22;24840;47.508;19.376;2023-03-20T08:53:22;18.20;65.20
39095;DHT22;24840;47.508;19.376;2023-03-20T08:55:49;18.20;64.70
39095;DHT22;24840;47.508;19.376;2023-03-20T08:58:15;18.50;63.40
39095;DHT22;24840;47.508;19.376;2023-03-20T09:00:41;18.20;61.90
39095;DHT22;24840;47.508;19.376;2023-03-20T09:03:11;18.60;61.30
39095;DHT22;24840;47.508;19.376;2023-03-20T09:05:39;18.70;60.10
39095;DHT22;24840;47.508;19.376;2023-03-20T09:08:06;18.60;63.50
39095;DHT22;24840;47.508;19.376;2023-03-20T09:10:32;18.30;59.30
39095;DHT22;24840;47.508;19.376;2023-03-20T09:12:58;18.30;59.70
39095;DHT22;24840;47.508;19.376;2023-03-20T09:15:24;18.60;59.00
39095;DHT22;24840;47.508;19.376;2023-03-20T09:17:50;18.80;58.10
39095;DHT22;24840;47.508;19.376;2023-03-20T09:20:16;19.30;62.20
39095;DHT22;24840;47.508;19.376;2023-03-20T09:22:41;19.20;59.60
39095;DHT22;24840;47.508;19.376;2023-03-20T09:25:10;19.40;59.30
39095;DHT22;24840;47.508;19.376;2023-03-20T09:27:36;19.60;58.20
39095;DHT22;24840;47.508;19.376;2023-03-20T09:30:02;19.40;59.30
39095;DHT22;24840;47.508;19.376;2023-03-20T09:32:28;18.80;56.70
39095;DHT22;24840;47.508;19.376;2023-03-20T09:34:54;19.10;58.50
39095;DHT22;24840;47.508;19.376;2023-03-20T09:37:20;19.50;59.90
39095;DHT22;24840;47.508;19.376;2023-03-20T09:39:46;19.40;57.30
39095;DHT22;24840;47.508;19.376;2023-03-20T09:45:14;19.30;56.90
39095;DHT22;24840;47.508;19.376;2023-03-20T09:48:06;18.80;57.00
39095;DHT22;24840;47.508;19.376;2023-03-20T09:50:52;18.70;57.10
39095;DHT22;24840;47.508;19.376;2023-03-20T09:55:51;19.00;57.40
39095;DHT22;24840;47.508;19.376;2023-03-20T09:58:30;19.30;58.00
39095;DHT22;24840;47.508;19.376;2023-03-20T10:01:00;19.30;56.30
39095;DHT22;24840;47.508;19.376;2023-03-20T10:03:35;19.30;58.00
39095;DHT22;24840;47.508;19.376;2023-03-20T10:06:05;19.40;55.70
39095;DHT22;24840;47.508;19.376;2023-03-20T10:08:34;19.40;58.90
39095;DHT22;24840;47.508;19.376;2023-03-20T10:14:17;19.30;56.00
39095;DHT22;24840;47.508;19.376;2023-03-20T10:20:10;19.50;54.80
39095;DHT22;24840;47.508;19.376;2023-03-20T10:22:35;19.50;56.00
39095;DHT22;24840;47.508;19.376;2023-03-20T10:28:10;20.00;55.30
39095;DHT22;24840;47.508;19.376;2023-03-20T10:30:48;19.30;57.10
39095;DHT22;24840;47.508;19.376;2023-03-20T10:41:28;19.90;55.30
39095;DHT22;24840;47.508;19.376;2023-03-20T10:43:58;20.10;54.50
39095;DHT22;24840;47.508;19.376;2023-03-20T10:46:40;20.00;54.40
39095;DHT22;24840;47.508;19.376;2023-03-20T10:49:16;19.70;55.80
39095;DHT22;24840;47.508;19.376;2023-03-20T10:51:50;20.30;54.30
39095;DHT22;24840;47.508;19.376;2023-03-20T10:54:34;20.70;55.90
39095;DHT22;24840;47.508;19.376;2023-03-20T10:57:03;20.80;55.20
39095;DHT22;24840;47.508;19.376;2023-03-20T10:59:43;21.10;53.70
39095;DHT22;24840;47.508;19.376;2023-03-20T11:02:14;21.40;57.00
39095;DHT22;24840;47.508;19.376;2023-03-20T11:04:41;21.30;54.60
39095;DHT22;24840;47.508;19.376;2023-03-20T11:09:45;21.20;53.30
39095;DHT22;24840;47.508;19.376;2023-03-20T11:12:16;21.20;52.10
39095;DHT22;24840;47.508;19.376;2023-03-20T11:14:44;20.50;55.00
39095;DHT22;24840;47.508;19.376;2023-03-20T11:17:11;20.80;52.90
39095;DHT22;24840;47.508;19.376;2023-03-20T11:19:39;20.80;52.80
39095;DHT22;24840;47.508;19.376;2023-03-20T11:22:18;20.20;53.80
39095;DHT22;24840;47.508;19.376;2023-03-20T11:24:51;19.50;55.10
39095;DHT22;24840;47.508;19.376;2023-03-20T11:27:18;19.10;58.80
39095;DHT22;24840;47.508;19.376;2023-03-20T11:29:49;19.60;55.10
39095;DHT22;24840;47.508;19.376;2023-03-20T11:32:33;19.90;56.20
39095;DHT22;24840;47.508;19.376;2023-03-20T11:37:50;19.60;54.30
39095;DHT22;24840;47.508;19.376;2023-03-20T11:40:22;19.70;55.10
39095;DHT22;24840;47.508;19.376;2023-03-20T11:45:25;20.50;55.50
39095;DHT22;24840;47.508;19.376;2023-03-20T11:47:54;20.50;54.60
39095;DHT22;24840;47.508;19.376;2023-03-20T11:50:28;20.10;57.10
39095;DHT22;24840;47.508;19.376;2023-03-20T11:52:56;20.10;57.10
39095;DHT22;24840;47.508;19.376;2023-03-20T11:55:33;20.10;53.30
39095;DHT22;24840;47.508;19.376;2023-03-20T11:58:02;19.70;55.00
39095;DHT22;24840;47.508;19.376;2023-03-20T12:00:37;19.70;54.10
39095;DHT22;24840;47.508;19.376;2023-03-20T12:03:33;19.50;56.20
39095;DHT22;24840;47.508;19.376;2023-03-20T12:06:01;20.00;57.00
39095;DHT22;24840;47.508;19.376;2023-03-20T12:08:28;19.90;53.10
39095;DHT22;24840;47.508;19.376;2023-03-20T12:11:05;19.70;55.00
39095;DHT22;24840;47.508;19.376;2023-03-20T12:13:36;19.50;55.20
39095;DHT22;24840;47.508;19.376;2023-03-20T12:16:06;19.70;57.00
39095;DHT22;24840;47.508;19.376;2023-03-20T12:18:37;19.90;55.10
39095;DHT22;24840;47.508;19.376;2023-03-20T12:21:13;19.80;54.00
39095;DHT22;24840;47.508;19.376;2023-03-20T12:23:52;19.80;52.80
39095;DHT22;24840;47.508;19.376;2023-03-20T12:31:54;20.50;54.10
39095;DHT22;24840;47.508;19.376;2023-03-20T12:34:25;20.30;54.00
39095;DHT22;24840;47.508;19.376;2023-03-20T12:36:54;19.50;52.30
39095;DHT22;24840;47.508;19.376;2023-03-20T12:39:34;19.30;52.30
39095;DHT22;24840;47.508;19.376;2023-03-20T12:54:22;20.00;55.90
39095;DHT22;24840;47.508;19.376;2023-03-20T12:57:01;20.50;55.50
39095;DHT22;24840;47.508;19.376;2023-03-20T13:05:14;19.40;52.80
39095;DHT22;24840;47.508;19.376;2023-03-20T13:10:23;19.00;55.20
39095;DHT22;24840;47.508;19.376;2023-03-20T13:15:48;19.90;56.90
39095;DHT22;24840;47.508;19.376;2023-03-20T13:18:29;19.80;55.40
39095;DHT22;24840;47.508;19.376;2023-03-20T13:20:58;19.80;54.80
39095;DHT22;24840;47.508;19.376;2023-03-20T13:23:36;19.50;55.50
39095;DHT22;24840;47.508;19.376;2023-03-20T13:27:08;19.40;53.30
39095;DHT22;24840;47.508;19.376;2023-03-20T13:29:26;19.10;56.20
39095;DHT22;24840;47.508;19.376;2023-03-20T13:37:27;18.90;54.80
39095;DHT22;24840;47.508;19.376;2023-03-20T13:40:05;18.70;54.10
39095;DHT22;24840;47.508;19.376;2023-03-20T13:45:28;18.70;54.30
39095;DHT22;24840;47.508;19.376;2023-03-20T13:47:55;19.10;56.40
39095;DHT22;24840;47.508;19.376;2023-03-20T13:50:40;19.70;56.20
39095;DHT22;24840;47.508;19.376;2023-03-20T13:53:32;19.90;55.90
39095;DHT22;24840;47.508;19.376;2023-03-20T13:59:13;19.20;55.40
39095;DHT22;24840;47.508;19.376;2023-03-20T14:04:17;18.90;54.80
39095;DHT22;24840;47.508;19.376;2023-03-20T14:06:48;19.10;56.30
39095;DHT22;24840;47.508;19.376;2023-03-20T14:09:35;19.10;55.10
39095;DHT22;24840;47.508;19.376;2023-03-20T14:12:05;18.80;55.20
39095;DHT22;24840;47.508;19.376;2023-03-20T14:14:57;18.90;57.90
39095;DHT22;24840;47.508;19.376;2023-03-20T14:17:27;19.10;55.70
39095;DHT22;24840;47.508;19.376;2023-03-20T14:19:55;18.80;55.00
39095;DHT22;24840;47.508;19.376;2023-03-20T14:22:33;19.00;55.30
39095;DHT22;24840;47.508;19.376;2023-03-20T14:25:04;18.80;54.50
39095;DHT22;24840;47.508;19.376;2023-03-20T14:28:40;18.50;55.10
39095;DHT22;24840;47.508;19.376;2023-03-20T14:30:45;18.60;57.70
39095;DHT22;24840;47.508;19.376;2023-03-20T14:35:43;18.40;55.70
39095;DHT22;24840;47.508;19.376;2023-03-20T14:46:26;18.40;58.40
39095;DHT22;24840;47.508;19.376;2023-03-20T14:48:56;18.30;58.80
39095;DHT22;24840;47.508;19.376;2023-03-20T14:51:44;18.40;59.10
39095;DHT22;24840;47.508;19.376;2023-03-20T14:56:48;18.20;58.30
39095;DHT22;24840;47.508;19.376;2023-03-20T14:59:19;18.00;58.20
39095;DHT22;24840;47.508;19.376;2023-03-20T15:02:00;17.60;59.00
39095;DHT22;24840;47.508;19.376;2023-03-20T15:04:41;17.50;59.20
39095;DHT22;24840;47.508;19.376;2023-03-20T15:07:33;17.40;60.30
39095;DHT22;24840;47.508;19.376;2023-03-20T15:10:01;17.50;61.00
39095;DHT22;24840;47.508;19.376;2023-03-20T15:12:32;17.90;63.70
39095;DHT22;24840;47.508;19.376;2023-03-20T15:15:02;18.30;59.50
39095;DHT22;24840;47.508;19.376;2023-03-20T15:17:44;18.40;59.40
39095;DHT22;24840;47.508;19.376;2023-03-20T15:20:18;18.60;60.90
39095;DHT22;24840;47.508;19.376;2023-03-20T15:22:59;18.60;58.30
39095;DHT22;24840;47.508;19.376;2023-03-20T15:25:43;18.40;59.50
39095;DHT22;24840;47.508;19.376;2023-03-20T15:28:24;18.30;59.50
39095;DHT22;24840;47.508;19.376;2023-03-20T15:30:51;18.00;60.50
39095;DHT22;24840;47.508;19.376;2023-03-20T15:33:28;17.90;61.10
39095;DHT22;24840;47.508;19.376;2023-03-20T15:35:55;17.60;60.40
39095;DHT22;24840;47.508;19.376;2023-03-20T15:38:22;17.50;60.20
39095;DHT22;24840;47.508;19.376;2023-03-20T15:40:50;17.40;61.80
39095;DHT22;24840;47.508;19.376;2023-03-20T15:43:22;17.30;61.50
39095;DHT22;24840;47.508;19.376;2023-03-20T15:45:50;17.10;61.80
39095;DHT22;24840;47.508;19.376;2023-03-20T15:48:22;17.10;62.00
39095;DHT22;24840;47.508;19.376;2023-03-20T15:50:54;17.00;63.10
39095;DHT22;24840;47.508;19.376;2023-03-20T15:53:29;17.00;63.60
39095;DHT22;24840;47.508;19.376;2023-03-20T15:56:07;17.00;65.60
39095;DHT22;24840;47.508;19.376;2023-03-20T15:58:34;17.00;65.60
39095;DHT22;24840;47.508;19.376;2023-03-20T16:01:03;16.80;68.30
39095;DHT22;24840;47.508;19.376;2023-03-20T16:03:30;16.90;68.10
39095;DHT22;24840;47.508;19.376;2023-03-20T16:05:59;16.90;71.60
39095;DHT22;24840;47.508;19.376;2023-03-20T16:08:29;16.70;71.40
39095;DHT22;24840;47.508;19.376;2023-03-20T16:11:03;16.90;70.40
39095;DHT22;24840;47.508;19.376;2023-03-20T16:13:31;16.80;67.40
39095;DHT22;24840;47.508;19.376;2023-03-20T16:15:57;16.70;66.60
39095;DHT22;24840;47.508;19.376;2023-03-20T16:18:25;16.80;67.60
39095;DHT22;24840;47.508;19.376;2023-03-20T16:20:57;16.80;67.10
39095;DHT22;24840;47.508;19.376;2023-03-20T16:23:46;16.70;67.10
39095;DHT22;24840;47.508;19.376;2023-03-20T16:26:16;16.60;71.20
39095;DHT22;24840;47.508;19.376;2023-03-20T16:28:46;16.40;70.40
39095;DHT22;24840;47.508;19.376;2023-03-20T16:31:18;16.30;71.40
39095;DHT22;24840;47.508;19.376;2023-03-20T16:33:45;16.30;70.70
39095;DHT22;24840;47.508;19.376;2023-03-20T16:36:16;16.20;70.90
39095;DHT22;24840;47.508;19.376;2023-03-20T16:39:01;16.00;72.90
39095;DHT22;24840;47.508;19.376;2023-03-20T16:41:34;15.90;74.20
39095;DHT22;24840;47.508;19.376;2023-03-20T16:44:14;15.70;75.70
39095;DHT22;24840;47.508;19.376;2023-03-20T16:47:02;15.50;76.20
39095;DHT22;24840;47.508;19.376;2023-03-20T16:52:25;15.00;77.80
39095;DHT22;24840;47.508;19.376;2023-03-20T16:54:51;14.80;77.80
39095;DHT22;24840;47.508;19.376;2023-03-20T16:57:18;14.60;80.10
39095;DHT22;24840;47.508;19.376;2023-03-20T16:59:44;14.40;79.90
39095;DHT22;24840;47.508;19.376;2023-03-20T17:02:37;14.00;81.00
39095;DHT22;24840;47.508;19.376;2023-03-20T17:05:11;14.10;79.10
39095;DHT22;24840;47.508;19.376;2023-03-20T17:07:38;13.60;80.40
39095;DHT22;24840;47.508;19.376;2023-03-20T17:12:43;13.50;80.40
39095;DHT22;24840;47.508;19.376;2023-03-20T17:15:18;13.30;82.30
39095;DHT22;24840;47.508;19.376;2023-03-20T17:17:44;13.00;81.50
39095;DHT22;24840;47.508;19.376;2023-03-20T17:20:22;12.90;81.30
39095;DHT22;24840;47.508;19.376;2023-03-20T17:22:48;12.70;81.50
39095;DHT22;24840;47.508;19.376;2023-03-20T17:25:15;12.60;81.60
39095;DHT22;24840;47.508;19.376;2023-03-20T17:27:41;12.30;83.00
39095;DHT22;24840;47.508;19.376;2023-03-20T17:30:17;11.90;83.60
39095;DHT22;24840;47.508;19.376;2023-03-20T17:32:43;11.80;83.90
39095;DHT22;24840;47.508;19.376;2023-03-20T17:35:09;11.60;84.90
39095;DHT22;24840;47.508;19.376;2023-03-20T17:37:35;11.20;86.50
39095;DHT22;24840;47.508;19.376;2023-03-20T17:40:01;11.20;86.40
39095;DHT22;24840;47.508;19.376;2023-03-20T17:42:27;11.00;86.40
39095;DHT22;24840;47.508;19.376;2023-03-20T17:44:57;11.00;86.80
39095;DHT22;24840;47.508;19.376;2023-03-20T17:47:25;10.80;87.30
39095;DHT22;24840;47.508;19.376;2023-03-20T17:49:51;10.60;88.40
39095;DHT22;24840;47.508;19.376;2023-03-20T17:52:21;10.50;88.60
39095;DHT22;24840;47.508;19.376;2023-03-20T17:54:47;10.50;89.00
39095;DHT22;24840;47.508;19.376;2023-03-20T17:59:45;10.20;88.80
39095;DHT22;24840;47.508;19.376;2023-03-20T18:02:11;10.00;90.00
39095;DHT22;24840;47.508;19.376;2023-03-20T18:04:37;9.90;90.20
39095;DHT22;24840;47.508;19.376;2023-03-20T18:07:02;10.00;90.30
39095;DHT22;24840;47.508;19.376;2023-03-20T18:09:28;9.70;90.60
39095;DHT22;24840;47.508;19.376;2023-03-20T18:11:55;9.60;91.30
39095;DHT22;24840;47.508;19.376;2023-03-20T18:14:21;9.50;91.70